sensor_id;sensor_type;location;lat;lon;timestamp;P1;durP1;ratioP1;P2;durP2;ratioP2
18387;SDS011;9320;50.256;19.026;2023-04-07T00:00:11;49.67;;;32.57;;
18387;SDS011;9320;50.256;19.026;2023-04-07T00:02:42;52.00;;;32.43;;
18387;SDS011;9320;50.256;19.026;2023-04-07T00:05:10;49.77;;;32.00;;
18387;SDS011;9320;50.256;19.026;2023-04-07T00:07:38;52.47;;;32.87;;
18387;SDS011;9320;50.256;19.026;2023-04-07T00:10:18;45.03;;;29.73;;
18387;SDS011;9320;50.256;19.026;2023-04-07T00:12:46;46.23;;;31.67;;
18387;SDS011;9320;50.256;19.026;2023-04-07T00:15:14;50.10;;;32.80;;
18387;SDS011;9320;50.256;19.026;2023-04-07T00:17:43;49.90;;;32.93;;
18387;SDS011;9320;50.256;19.026;2023-04-07T00:20:11;47.63;;;32.87;;
18387;SDS011;9320;50.256;19.026;2023-04-07T00:22:39;51.07;;;33.07;;
18387;SDS011;9320;50.256;19.026;2023-04-07T00:25:07;52.80;;;32.60;;
18387;SDS011;9320;50.256;19.026;2023-04-07T00:27:36;50.93;;;33.47;;
18387;SDS011;9320;50.256;19.026;2023-04-07T00:30:04;54.40;;;32.73;;
18387;SDS011;9320;50.256;19.026;2023-04-07T00:32:33;54.80;;;33.10;;
18387;SDS011;9320;50.256;19.026;2023-04-07T00:35:03;49.60;;;30.77;;
18387;SDS011;9320;50.256;19.026;2023-04-07T00:37:32;50.37;;;31.80;;
18387;SDS011;9320;50.256;19.026;2023-04-07T00:40:00;49.53;;;30.33;;
18387;SDS011;9320;50.256;19.026;2023-04-07T00:42:29;46.53;;;30.50;;
18387;SDS011;9320;50.256;19.026;2023-04-07T00:44:57;48.97;;;29.33;;
18387;SDS011;9320;50.256;19.026;2023-04-07T00:47:25;48.70;;;30.43;;
18387;SDS011;9320;50.256;19.026;2023-04-07T00:49:53;48.13;;;29.73;;
18387;SDS011;9320;50.256;19.026;2023-04-07T00:52:23;47.73;;;30.20;;
18387;SDS011;9320;50.256;19.026;2023-04-07T00:54:55;51.90;;;31.33;;
18387;SDS011;9320;50.256;19.026;2023-04-07T00:57:23;48.20;;;30.20;;
18387;SDS011;9320;50.256;19.026;2023-04-07T00:59:53;53.80;;;29.70;;
18387;SDS011;9320;50.256;19.026;2023-04-07T01:02:22;45.60;;;28.97;;
18387;SDS011;9320;50.256;19.026;2023-04-07T01:05:01;49.50;;;30.07;;
18387;SDS011;9320;50.256;19.026;2023-04-07T01:07:39;47.30;;;29.17;;
18387;SDS011;9320;50.256;19.026;2023-04-07T01:10:18;47.07;;;29.37;;
18387;SDS011;9320;50.256;19.026;2023-04-07T01:12:53;40.93;;;27.47;;
18387;SDS011;9320;50.256;19.026;2023-04-07T01:15:31;48.03;;;29.60;;
18387;SDS011;9320;50.256;19.026;2023-04-07T01:18:04;47.00;;;28.87;;
18387;SDS011;9320;50.256;19.026;2023-04-07T01:20:36;47.43;;;29.50;;
18387;SDS011;9320;50.256;19.026;2023-04-07T01:23:07;47.27;;;29.70;;
18387;SDS011;9320;50.256;19.026;2023-04-07T01:28:48;49.03;;;29.60;;
18387;SDS011;9320;50.256;19.026;2023-04-07T01:31:25;48.97;;;30.67;;
18387;SDS011;9320;50.256;19.026;2023-04-07T01:33:54;48.90;;;30.87;;
18387;SDS011;9320;50.256;19.026;2023-04-07T01:36:23;51.30;;;30.83;;
18387;SDS011;9320;50.256;19.026;2023-04-07T01:38:54;50.30;;;31.07;;
18387;SDS011;9320;50.256;19.026;2023-04-07T01:41:24;49.70;;;30.23;;
18387;SDS011;9320;50.256;19.026;2023-04-07T01:43:54;47.80;;;29.03;;
18387;SDS011;9320;50.256;19.026;2023-04-07T01:46:23;47.97;;;27.20;;
18387;SDS011;9320;50.256;19.026;2023-04-07T01:48:53;48.70;;;29.53;;
18387;SDS011;9320;50.256;19.026;2023-04-07T01:51:23;44.83;;;28.30;;
18387;SDS011;9320;50.256;19.026;2023-04-07T01:53:52;48.87;;;29.90;;
18387;SDS011;9320;50.256;19.026;2023-04-07T01:56:21;51.37;;;30.77;;
18387;SDS011;9320;50.256;19.026;2023-04-07T01:58:49;51.63;;;29.77;;
18387;SDS011;9320;50.256;19.026;2023-04-07T02:01:17;52.33;;;30.53;;
18387;SDS011;9320;50.256;19.026;2023-04-07T02:03:48;47.73;;;29.80;;
18387;SDS011;9320;50.256;19.026;2023-04-07T02:06:23;48.17;;;29.60;;
18387;SDS011;9320;50.256;19.026;2023-04-07T02:08:59;50.77;;;30.27;;
18387;SDS011;9320;50.256;19.026;2023-04-07T02:11:32;49.80;;;29.63;;
18387;SDS011;9320;50.256;19.026;2023-04-07T02:14:03;52.07;;;30.93;;
18387;SDS011;9320;50.256;19.026;2023-04-07T02:16:33;52.43;;;30.77;;
18387;SDS011;9320;50.256;19.026;2023-04-07T02:19:03;49.73;;;29.67;;
18387;SDS011;9320;50.256;19.026;2023-04-07T02:21:32;54.00;;;31.73;;
18387;SDS011;9320;50.256;19.026;2023-04-07T02:24:01;55.43;;;30.43;;
18387;SDS011;9320;50.256;19.026;2023-04-07T02:26:32;56.50;;;31.90;;
18387;SDS011;9320;50.256;19.026;2023-04-07T02:29:01;49.37;;;31.10;;
18387;SDS011;9320;50.256;19.026;2023-04-07T02:31:29;55.80;;;33.07;;
18387;SDS011;9320;50.256;19.026;2023-04-07T02:33:57;52.57;;;30.87;;
18387;SDS011;9320;50.256;19.026;2023-04-07T02:36:27;54.23;;;31.20;;
18387;SDS011;9320;50.256;19.026;2023-04-07T02:38:55;57.77;;;31.53;;
18387;SDS011;9320;50.256;19.026;2023-04-07T02:41:23;50.57;;;29.77;;
18387;SDS011;9320;50.256;19.026;2023-04-07T02:43:51;50.13;;;28.33;;
18387;SDS011;9320;50.256;19.026;2023-04-07T02:46:20;53.63;;;31.03;;
18387;SDS011;9320;50.256;19.026;2023-04-07T02:48:48;47.67;;;29.00;;
18387;SDS011;9320;50.256;19.026;2023-04-07T02:51:16;47.63;;;28.90;;
18387;SDS011;9320;50.256;19.026;2023-04-07T02:53:46;47.73;;;29.00;;
18387;SDS011;9320;50.256;19.026;2023-04-07T02:56:14;48.50;;;27.93;;
18387;SDS011;9320;50.256;19.026;2023-04-07T02:58:42;47.03;;;29.90;;
18387;SDS011;9320;50.256;19.026;2023-04-07T03:01:10;48.33;;;29.23;;
18387;SDS011;9320;50.256;19.026;2023-04-07T03:03:38;45.93;;;28.30;;
18387;SDS011;9320;50.256;19.026;2023-04-07T03:06:07;51.40;;;29.57;;
18387;SDS011;9320;50.256;19.026;2023-04-07T03:08:35;42.77;;;29.00;;
18387;SDS011;9320;50.256;19.026;2023-04-07T03:11:05;44.30;;;27.07;;
18387;SDS011;9320;50.256;19.026;2023-04-07T03:13:33;43.63;;;25.60;;
18387;SDS011;9320;50.256;19.026;2023-04-07T03:16:01;43.23;;;25.40;;
18387;SDS011;9320;50.256;19.026;2023-04-07T03:18:29;43.33;;;24.67;;
18387;SDS011;9320;50.256;19.026;2023-04-07T03:20:57;40.80;;;25.50;;
18387;SDS011;9320;50.256;19.026;2023-04-07T03:23:25;45.80;;;26.50;;
18387;SDS011;9320;50.256;19.026;2023-04-07T03:25:54;44.93;;;26.40;;
18387;SDS011;9320;50.256;19.026;2023-04-07T03:28:24;42.10;;;25.87;;
18387;SDS011;9320;50.256;19.026;2023-04-07T03:30:52;49.80;;;27.17;;
18387;SDS011;9320;50.256;19.026;2023-04-07T03:33:20;46.27;;;27.87;;
18387;SDS011;9320;50.256;19.026;2023-04-07T03:35:48;49.17;;;28.07;;
18387;SDS011;9320;50.256;19.026;2023-04-07T03:38:16;51.73;;;28.97;;
18387;SDS011;9320;50.256;19.026;2023-04-07T03:40:44;52.07;;;29.73;;
18387;SDS011;9320;50.256;19.026;2023-04-07T03:43:12;45.13;;;26.87;;
18387;SDS011;9320;50.256;19.026;2023-04-07T03:45:42;48.43;;;29.30;;
18387;SDS011;9320;50.256;19.026;2023-04-07T03:48:11;51.80;;;29.23;;
18387;SDS011;9320;50.256;19.026;2023-04-07T03:50:39;54.03;;;29.30;;
18387;SDS011;9320;50.256;19.026;2023-04-07T03:53:07;54.00;;;29.73;;
18387;SDS011;9320;50.256;19.026;2023-04-07T03:55:35;57.10;;;31.47;;
18387;SDS011;9320;50.256;19.026;2023-04-07T03:58:04;47.93;;;27.50;;
18387;SDS011;9320;50.256;19.026;2023-04-07T04:00:32;41.87;;;25.97;;
18387;SDS011;9320;50.256;19.026;2023-04-07T04:03:02;42.07;;;24.90;;
18387;SDS011;9320;50.256;19.026;2023-04-07T04:05:30;45.60;;;27.40;;
18387;SDS011;9320;50.256;19.026;2023-04-07T04:07:58;46.90;;;27.43;;
18387;SDS011;9320;50.256;19.026;2023-04-07T04:10:26;44.83;;;27.07;;
18387;SDS011;9320;50.256;19.026;2023-04-07T04:12:55;45.00;;;27.87;;
18387;SDS011;9320;50.256;19.026;2023-04-07T04:15:25;46.43;;;28.67;;
18387;SDS011;9320;50.256;19.026;2023-04-07T04:17:53;45.43;;;25.60;;
18387;SDS011;9320;50.256;19.026;2023-04-07T04:20:23;43.70;;;26.43;;
18387;SDS011;9320;50.256;19.026;2023-04-07T04:22:51;43.77;;;27.10;;
18387;SDS011;9320;50.256;19.026;2023-04-07T04:25:19;44.80;;;27.23;;
18387;SDS011;9320;50.256;19.026;2023-04-07T04:27:47;47.27;;;27.00;;
18387;SDS011;9320;50.256;19.026;2023-04-07T04:30:15;50.17;;;29.80;;
18387;SDS011;9320;50.256;19.026;2023-04-07T04:32:43;45.43;;;26.40;;
18387;SDS011;9320;50.256;19.026;2023-04-07T04:35:12;42.33;;;24.97;;
18387;SDS011;9320;50.256;19.026;2023-04-07T04:37:41;40.07;;;24.67;;
18387;SDS011;9320;50.256;19.026;2023-04-07T04:40:09;42.30;;;25.00;;
18387;SDS011;9320;50.256;19.026;2023-04-07T04:42:38;44.27;;;25.47;;
18387;SDS011;9320;50.256;19.026;2023-04-07T04:45:07;40.57;;;25.33;;
18387;SDS011;9320;50.256;19.026;2023-04-07T04:47:35;39.07;;;24.20;;
18387;SDS011;9320;50.256;19.026;2023-04-07T04:50:05;42.63;;;25.53;;
18387;SDS011;9320;50.256;19.026;2023-04-07T04:52:33;39.63;;;24.10;;
18387;SDS011;9320;50.256;19.026;2023-04-07T04:55:05;42.07;;;25.17;;
18387;SDS011;9320;50.256;19.026;2023-04-07T04:57:34;45.03;;;26.53;;
18387;SDS011;9320;50.256;19.026;2023-04-07T05:00:02;39.77;;;23.97;;
18387;SDS011;9320;50.256;19.026;2023-04-07T05:02:30;38.30;;;23.83;;
18387;SDS011;9320;50.256;19.026;2023-04-07T05:04:59;37.60;;;23.80;;
18387;SDS011;9320;50.256;19.026;2023-04-07T05:07:27;38.20;;;24.30;;
18387;SDS011;9320;50.256;19.026;2023-04-07T05:09:56;33.70;;;22.37;;
18387;SDS011;9320;50.256;19.026;2023-04-07T05:12:25;41.73;;;24.70;;
18387;SDS011;9320;50.256;19.026;2023-04-07T05:14:53;35.77;;;23.33;;
18387;SDS011;9320;50.256;19.026;2023-04-07T05:17:21;42.43;;;25.33;;
18387;SDS011;9320;50.256;19.026;2023-04-07T05:19:49;36.97;;;23.70;;
18387;SDS011;9320;50.256;19.026;2023-04-07T05:22:17;43.53;;;26.07;;
18387;SDS011;9320;50.256;19.026;2023-04-07T05:24:45;49.00;;;27.67;;
18387;SDS011;9320;50.256;19.026;2023-04-07T05:27:13;41.33;;;24.00;;
18387;SDS011;9320;50.256;19.026;2023-04-07T05:29:43;43.73;;;24.57;;
18387;SDS011;9320;50.256;19.026;2023-04-07T05:32:11;39.00;;;24.43;;
18387;SDS011;9320;50.256;19.026;2023-04-07T05:34:39;40.33;;;24.83;;
18387;SDS011;9320;50.256;19.026;2023-04-07T05:37:07;35.33;;;22.67;;
18387;SDS011;9320;50.256;19.026;2023-04-07T05:39:35;36.40;;;23.63;;
18387;SDS011;9320;50.256;19.026;2023-04-07T05:42:03;39.90;;;23.83;;
18387;SDS011;9320;50.256;19.026;2023-04-07T05:44:31;36.60;;;23.67;;
18387;SDS011;9320;50.256;19.026;2023-04-07T05:47:01;39.63;;;23.13;;
18387;SDS011;9320;50.256;19.026;2023-04-07T05:49:31;36.03;;;22.60;;
18387;SDS011;9320;50.256;19.026;2023-04-07T05:51:59;37.10;;;23.77;;
18387;SDS011;9320;50.256;19.026;2023-04-07T05:54:28;33.57;;;20.67;;
18387;SDS011;9320;50.256;19.026;2023-04-07T05:56:57;40.07;;;22.57;;
18387;SDS011;9320;50.256;19.026;2023-04-07T05:59:24;36.57;;;23.33;;
18387;SDS011;9320;50.256;19.026;2023-04-07T06:01:52;38.40;;;24.03;;
18387;SDS011;9320;50.256;19.026;2023-04-07T06:04:22;41.03;;;24.67;;
18387;SDS011;9320;50.256;19.026;2023-04-07T06:06:50;39.07;;;24.83;;
18387;SDS011;9320;50.256;19.026;2023-04-07T06:09:20;40.17;;;25.67;;
18387;SDS011;9320;50.256;19.026;2023-04-07T06:11:48;35.80;;;22.63;;
18387;SDS011;9320;50.256;19.026;2023-04-07T06:14:17;37.97;;;25.03;;
18387;SDS011;9320;50.256;19.026;2023-04-07T06:16:45;41.93;;;24.77;;
18387;SDS011;9320;50.256;19.026;2023-04-07T06:19:13;41.67;;;27.10;;
18387;SDS011;9320;50.256;19.026;2023-04-07T06:21:42;44.47;;;26.57;;
18387;SDS011;9320;50.256;19.026;2023-04-07T06:24:11;43.23;;;27.17;;
18387;SDS011;9320;50.256;19.026;2023-04-07T06:26:39;44.10;;;26.10;;
18387;SDS011;9320;50.256;19.026;2023-04-07T06:29:07;40.10;;;26.13;;
18387;SDS011;9320;50.256;19.026;2023-04-07T06:31:36;41.13;;;24.63;;
18387;SDS011;9320;50.256;19.026;2023-04-07T06:34:05;38.83;;;24.27;;
18387;SDS011;9320;50.256;19.026;2023-04-07T06:36:33;37.70;;;22.93;;
18387;SDS011;9320;50.256;19.026;2023-04-07T06:39:02;40.57;;;25.07;;
18387;SDS011;9320;50.256;19.026;2023-04-07T06:41:31;36.73;;;24.00;;
18387;SDS011;9320;50.256;19.026;2023-04-07T06:43:59;43.10;;;25.67;;
18387;SDS011;9320;50.256;19.026;2023-04-07T06:46:27;42.40;;;25.57;;
18387;SDS011;9320;50.256;19.026;2023-04-07T06:48:55;41.17;;;24.80;;
18387;SDS011;9320;50.256;19.026;2023-04-07T06:51:23;43.37;;;26.23;;
18387;SDS011;9320;50.256;19.026;2023-04-07T06:53:51;41.77;;;26.27;;
18387;SDS011;9320;50.256;19.026;2023-04-07T06:56:21;44.00;;;25.40;;
18387;SDS011;9320;50.256;19.026;2023-04-07T06:58:50;39.23;;;24.33;;
18387;SDS011;9320;50.256;19.026;2023-04-07T07:01:18;39.53;;;24.20;;
18387;SDS011;9320;50.256;19.026;2023-04-07T07:03:47;35.33;;;23.33;;
18387;SDS011;9320;50.256;19.026;2023-04-07T07:06:15;35.13;;;22.50;;
18387;SDS011;9320;50.256;19.026;2023-04-07T07:08:43;34.60;;;23.00;;
18387;SDS011;9320;50.256;19.026;2023-04-07T07:11:11;35.43;;;22.60;;
18387;SDS011;9320;50.256;19.026;2023-04-07T07:13:41;35.30;;;23.73;;
18387;SDS011;9320;50.256;19.026;2023-04-07T07:16:10;34.90;;;22.70;;
18387;SDS011;9320;50.256;19.026;2023-04-07T07:18:39;32.07;;;20.80;;
18387;SDS011;9320;50.256;19.026;2023-04-07T07:21:07;32.53;;;22.20;;
18387;SDS011;9320;50.256;19.026;2023-04-07T07:23:35;36.17;;;22.60;;
18387;SDS011;9320;50.256;19.026;2023-04-07T07:26:03;35.97;;;22.40;;
18387;SDS011;9320;50.256;19.026;2023-04-07T07:28:31;36.97;;;23.90;;
18387;SDS011;9320;50.256;19.026;2023-04-07T07:31:00;36.00;;;24.00;;
18387;SDS011;9320;50.256;19.026;2023-04-07T07:33:35;31.43;;;21.63;;
18387;SDS011;9320;50.256;19.026;2023-04-07T07:36:06;38.77;;;23.30;;
18387;SDS011;9320;50.256;19.026;2023-04-07T07:38:34;32.83;;;22.97;;
18387;SDS011;9320;50.256;19.026;2023-04-07T07:41:03;36.87;;;24.17;;
18387;SDS011;9320;50.256;19.026;2023-04-07T07:43:32;35.77;;;24.10;;
18387;SDS011;9320;50.256;19.026;2023-04-07T07:46:01;40.97;;;25.23;;
18387;SDS011;9320;50.256;19.026;2023-04-07T07:48:30;40.43;;;25.00;;
18387;SDS011;9320;50.256;19.026;2023-04-07T07:50:58;37.60;;;24.97;;
18387;SDS011;9320;50.256;19.026;2023-04-07T07:53:26;37.33;;;25.17;;
18387;SDS011;9320;50.256;19.026;2023-04-07T07:55:54;37.10;;;24.50;;
18387;SDS011;9320;50.256;19.026;2023-04-07T07:58:22;35.43;;;22.97;;
18387;SDS011;9320;50.256;19.026;2023-04-07T08:00:50;35.87;;;23.67;;
18387;SDS011;9320;50.256;19.026;2023-04-07T08:03:19;36.13;;;22.83;;
18387;SDS011;9320;50.256;19.026;2023-04-07T08:05:48;35.53;;;22.97;;
18387;SDS011;9320;50.256;19.026;2023-04-07T08:08:16;36.07;;;22.67;;
18387;SDS011;9320;50.256;19.026;2023-04-07T08:10:44;34.70;;;22.30;;
18387;SDS011;9320;50.256;19.026;2023-04-07T08:13:12;36.33;;;24.33;;
18387;SDS011;9320;50.256;19.026;2023-04-07T08:15:40;34.40;;;23.50;;
18387;SDS011;9320;50.256;19.026;2023-04-07T08:18:08;39.03;;;24.73;;
18387;SDS011;9320;50.256;19.026;2023-04-07T08:20:38;40.57;;;26.47;;
18387;SDS011;9320;50.256;19.026;2023-04-07T08:23:06;44.43;;;27.17;;
18387;SDS011;9320;50.256;19.026;2023-04-07T08:25:34;45.23;;;27.73;;
18387;SDS011;9320;50.256;19.026;2023-04-07T08:28:02;46.83;;;27.37;;
18387;SDS011;9320;50.256;19.026;2023-04-07T08:30:30;43.13;;;26.50;;
18387;SDS011;9320;50.256;19.026;2023-04-07T08:32:58;45.80;;;26.93;;
18387;SDS011;9320;50.256;19.026;2023-04-07T08:35:26;43.60;;;26.87;;
18387;SDS011;9320;50.256;19.026;2023-04-07T08:37:56;43.90;;;25.90;;
18387;SDS011;9320;50.256;19.026;2023-04-07T08:40:24;42.87;;;26.20;;
18387;SDS011;9320;50.256;19.026;2023-04-07T08:42:52;43.63;;;25.60;;
18387;SDS011;9320;50.256;19.026;2023-04-07T08:45:20;43.07;;;26.10;;
18387;SDS011;9320;50.256;19.026;2023-04-07T08:47:48;48.20;;;27.67;;
18387;SDS011;9320;50.256;19.026;2023-04-07T08:50:22;45.50;;;27.50;;
18387;SDS011;9320;50.256;19.026;2023-04-07T08:52:53;50.77;;;28.73;;
18387;SDS011;9320;50.256;19.026;2023-04-07T08:55:23;52.37;;;28.87;;
18387;SDS011;9320;50.256;19.026;2023-04-07T08:57:52;50.93;;;28.60;;
18387;SDS011;9320;50.256;19.026;2023-04-07T09:00:21;42.77;;;26.83;;
18387;SDS011;9320;50.256;19.026;2023-04-07T09:02:50;45.43;;;27.30;;
18387;SDS011;9320;50.256;19.026;2023-04-07T09:05:18;45.27;;;26.83;;
18387;SDS011;9320;50.256;19.026;2023-04-07T09:07:47;46.30;;;27.13;;
18387;SDS011;9320;50.256;19.026;2023-04-07T09:10:16;54.43;;;31.20;;
18387;SDS011;9320;50.256;19.026;2023-04-07T09:12:44;54.60;;;29.90;;
18387;SDS011;9320;50.256;19.026;2023-04-07T09:15:13;53.87;;;30.87;;
18387;SDS011;9320;50.256;19.026;2023-04-07T09:17:41;59.77;;;33.10;;
18387;SDS011;9320;50.256;19.026;2023-04-07T09:20:09;53.93;;;29.53;;
18387;SDS011;9320;50.256;19.026;2023-04-07T09:22:38;46.57;;;27.00;;
18387;SDS011;9320;50.256;19.026;2023-04-07T09:25:09;44.53;;;26.83;;
18387;SDS011;9320;50.256;19.026;2023-04-07T09:27:56;46.87;;;26.63;;
18387;SDS011;9320;50.256;19.026;2023-04-07T09:30:25;42.03;;;26.87;;
18387;SDS011;9320;50.256;19.026;2023-04-07T09:32:54;42.07;;;25.07;;
18387;SDS011;9320;50.256;19.026;2023-04-07T09:35:22;53.93;;;29.97;;
18387;SDS011;9320;50.256;19.026;2023-04-07T09:38:03;50.57;;;28.70;;
18387;SDS011;9320;50.256;19.026;2023-04-07T09:40:31;58.20;;;31.43;;
18387;SDS011;9320;50.256;19.026;2023-04-07T09:43:01;59.70;;;32.50;;
18387;SDS011;9320;50.256;19.026;2023-04-07T09:45:30;61.60;;;32.13;;
18387;SDS011;9320;50.256;19.026;2023-04-07T09:48:05;52.37;;;30.57;;
18387;SDS011;9320;50.256;19.026;2023-04-07T09:50:35;51.47;;;29.53;;
18387;SDS011;9320;50.256;19.026;2023-04-07T09:53:06;49.43;;;29.23;;
18387;SDS011;9320;50.256;19.026;2023-04-07T09:55:34;54.90;;;31.77;;
18387;SDS011;9320;50.256;19.026;2023-04-07T09:58:05;54.20;;;31.87;;
18387;SDS011;9320;50.256;19.026;2023-04-07T10:00:34;55.77;;;32.00;;
18387;SDS011;9320;50.256;19.026;2023-04-07T10:03:03;54.17;;;31.17;;
18387;SDS011;9320;50.256;19.026;2023-04-07T10:05:32;66.10;;;35.17;;
18387;SDS011;9320;50.256;19.026;2023-04-07T10:08:02;67.50;;;37.13;;
18387;SDS011;9320;50.256;19.026;2023-04-07T10:10:30;64.77;;;35.63;;
18387;SDS011;9320;50.256;19.026;2023-04-07T10:12:58;57.37;;;31.87;;
18387;SDS011;9320;50.256;19.026;2023-04-07T10:15:29;52.67;;;30.60;;
18387;SDS011;9320;50.256;19.026;2023-04-07T10:17:57;47.77;;;27.60;;
18387;SDS011;9320;50.256;19.026;2023-04-07T10:20:26;46.87;;;26.60;;
18387;SDS011;9320;50.256;19.026;2023-04-07T10:22:55;46.30;;;27.33;;
18387;SDS011;9320;50.256;19.026;2023-04-07T10:25:33;46.40;;;26.53;;
18387;SDS011;9320;50.256;19.026;2023-04-07T10:28:03;43.17;;;26.13;;
18387;SDS011;9320;50.256;19.026;2023-04-07T10:30:34;41.57;;;25.23;;
18387;SDS011;9320;50.256;19.026;2023-04-07T10:33:03;43.10;;;25.70;;
18387;SDS011;9320;50.256;19.026;2023-04-07T10:35:55;41.00;;;24.17;;
18387;SDS011;9320;50.256;19.026;2023-04-07T10:38:30;43.83;;;24.73;;
18387;SDS011;9320;50.256;19.026;2023-04-07T10:40:59;41.67;;;24.97;;
18387;SDS011;9320;50.256;19.026;2023-04-07T10:43:35;42.27;;;25.30;;
18387;SDS011;9320;50.256;19.026;2023-04-07T10:46:06;43.57;;;25.87;;
18387;SDS011;9320;50.256;19.026;2023-04-07T10:48:34;38.50;;;24.27;;
18387;SDS011;9320;50.256;19.026;2023-04-07T10:51:13;40.50;;;24.57;;
18387;SDS011;9320;50.256;19.026;2023-04-07T10:59:38;46.50;;;27.77;;
18387;SDS011;9320;50.256;19.026;2023-04-07T11:05:04;45.57;;;28.43;;
18387;SDS011;9320;50.256;19.026;2023-04-07T11:07:43;46.27;;;28.80;;
18387;SDS011;9320;50.256;19.026;2023-04-07T11:10:14;44.30;;;27.70;;
18387;SDS011;9320;50.256;19.026;2023-04-07T11:12:57;44.60;;;27.17;;
18387;SDS011;9320;50.256;19.026;2023-04-07T11:15:28;43.47;;;27.20;;
18387;SDS011;9320;50.256;19.026;2023-04-07T11:18:08;41.60;;;26.80;;
18387;SDS011;9320;50.256;19.026;2023-04-07T11:20:42;49.73;;;28.27;;
18387;SDS011;9320;50.256;19.026;2023-04-07T11:23:12;42.93;;;25.23;;
18387;SDS011;9320;50.256;19.026;2023-04-07T11:25:41;41.50;;;25.37;;
18387;SDS011;9320;50.256;19.026;2023-04-07T11:28:11;39.47;;;26.50;;
18387;SDS011;9320;50.256;19.026;2023-04-07T11:30:49;38.40;;;24.80;;
18387;SDS011;9320;50.256;19.026;2023-04-07T11:33:21;43.13;;;25.67;;
18387;SDS011;9320;50.256;19.026;2023-04-07T11:35:53;37.27;;;23.93;;
18387;SDS011;9320;50.256;19.026;2023-04-07T11:38:23;40.03;;;24.80;;
18387;SDS011;9320;50.256;19.026;2023-04-07T11:40:52;37.63;;;23.83;;
18387;SDS011;9320;50.256;19.026;2023-04-07T11:43:22;33.73;;;22.20;;
18387;SDS011;9320;50.256;19.026;2023-04-07T11:46:04;34.60;;;21.87;;
18387;SDS011;9320;50.256;19.026;2023-04-07T11:48:35;31.93;;;22.40;;
18387;SDS011;9320;50.256;19.026;2023-04-07T11:51:06;30.87;;;22.40;;
18387;SDS011;9320;50.256;19.026;2023-04-07T11:53:41;35.20;;;22.40;;
18387;SDS011;9320;50.256;19.026;2023-04-07T11:56:11;33.73;;;22.80;;
18387;SDS011;9320;50.256;19.026;2023-04-07T11:58:47;35.43;;;22.73;;
18387;SDS011;9320;50.256;19.026;2023-04-07T12:01:15;39.90;;;24.97;;
18387;SDS011;9320;50.256;19.026;2023-04-07T12:03:57;36.83;;;23.93;;
18387;SDS011;9320;50.256;19.026;2023-04-07T12:06:28;32.47;;;21.53;;
18387;SDS011;9320;50.256;19.026;2023-04-07T12:09:00;33.07;;;22.37;;
18387;SDS011;9320;50.256;19.026;2023-04-07T12:11:28;34.33;;;22.10;;
18387;SDS011;9320;50.256;19.026;2023-04-07T12:13:56;34.17;;;22.43;;
18387;SDS011;9320;50.256;19.026;2023-04-07T12:16:24;34.77;;;22.07;;
18387;SDS011;9320;50.256;19.026;2023-04-07T12:18:52;34.40;;;21.77;;
18387;SDS011;9320;50.256;19.026;2023-04-07T12:21:22;35.27;;;21.60;;
18387;SDS011;9320;50.256;19.026;2023-04-07T12:23:50;33.73;;;20.23;;
18387;SDS011;9320;50.256;19.026;2023-04-07T12:26:18;36.27;;;21.10;;
18387;SDS011;9320;50.256;19.026;2023-04-07T12:28:48;30.43;;;20.00;;
18387;SDS011;9320;50.256;19.026;2023-04-07T12:31:16;29.83;;;20.80;;
18387;SDS011;9320;50.256;19.026;2023-04-07T12:33:44;31.23;;;21.03;;
18387;SDS011;9320;50.256;19.026;2023-04-07T12:36:13;30.73;;;20.47;;
18387;SDS011;9320;50.256;19.026;2023-04-07T12:38:42;28.90;;;21.00;;
18387;SDS011;9320;50.256;19.026;2023-04-07T12:41:10;30.53;;;20.97;;
18387;SDS011;9320;50.256;19.026;2023-04-07T12:43:38;35.80;;;22.40;;
18387;SDS011;9320;50.256;19.026;2023-04-07T12:46:06;32.83;;;22.50;;
18387;SDS011;9320;50.256;19.026;2023-04-07T12:48:34;37.13;;;22.20;;
18387;SDS011;9320;50.256;19.026;2023-04-07T12:51:03;38.70;;;25.27;;
18387;SDS011;9320;50.256;19.026;2023-04-07T12:53:31;40.60;;;26.23;;
18387;SDS011;9320;50.256;19.026;2023-04-07T12:56:01;40.87;;;25.53;;
18387;SDS011;9320;50.256;19.026;2023-04-07T12:58:29;37.33;;;24.77;;
18387;SDS011;9320;50.256;19.026;2023-04-07T13:00:57;36.63;;;24.47;;
18387;SDS011;9320;50.256;19.026;2023-04-07T13:03:26;36.50;;;24.47;;
18387;SDS011;9320;50.256;19.026;2023-04-07T13:05:54;35.60;;;22.87;;
18387;SDS011;9320;50.256;19.026;2023-04-07T13:08:26;36.10;;;23.50;;
18387;SDS011;9320;50.256;19.026;2023-04-07T13:10:54;32.83;;;21.63;;
18387;SDS011;9320;50.256;19.026;2023-04-07T13:13:24;32.57;;;21.47;;
18387;SDS011;9320;50.256;19.026;2023-04-07T13:15:52;41.70;;;24.07;;
18387;SDS011;9320;50.256;19.026;2023-04-07T13:18:20;44.47;;;26.43;;
18387;SDS011;9320;50.256;19.026;2023-04-07T13:20:48;43.33;;;26.40;;
18387;SDS011;9320;50.256;19.026;2023-04-07T13:23:36;43.73;;;25.50;;
18387;SDS011;9320;50.256;19.026;2023-04-07T13:26:18;33.37;;;21.07;;
18387;SDS011;9320;50.256;19.026;2023-04-07T13:28:48;36.33;;;23.60;;
18387;SDS011;9320;50.256;19.026;2023-04-07T13:31:16;36.70;;;23.10;;
18387;SDS011;9320;50.256;19.026;2023-04-07T13:33:47;32.17;;;22.13;;
18387;SDS011;9320;50.256;19.026;2023-04-07T13:36:15;37.20;;;23.10;;
18387;SDS011;9320;50.256;19.026;2023-04-07T13:38:46;37.90;;;22.57;;
18387;SDS011;9320;50.256;19.026;2023-04-07T13:41:14;32.77;;;22.97;;
18387;SDS011;9320;50.256;19.026;2023-04-07T13:43:42;40.70;;;24.70;;
18387;SDS011;9320;50.256;19.026;2023-04-07T13:46:12;36.13;;;22.63;;
18387;SDS011;9320;50.256;19.026;2023-04-07T13:48:53;36.90;;;21.90;;
18387;SDS011;9320;50.256;19.026;2023-04-07T13:51:21;35.83;;;22.30;;
18387;SDS011;9320;50.256;19.026;2023-04-07T13:53:49;37.73;;;22.93;;
18387;SDS011;9320;50.256;19.026;2023-04-07T13:56:17;40.03;;;25.20;;
18387;SDS011;9320;50.256;19.026;2023-04-07T13:58:47;39.57;;;24.63;;
18387;SDS011;9320;50.256;19.026;2023-04-07T14:01:17;34.57;;;21.90;;
18387;SDS011;9320;50.256;19.026;2023-04-07T14:03:45;33.30;;;20.77;;
18387;SDS011;9320;50.256;19.026;2023-04-07T14:06:15;31.30;;;21.03;;
18387;SDS011;9320;50.256;19.026;2023-04-07T14:08:43;32.90;;;22.27;;
18387;SDS011;9320;50.256;19.026;2023-04-07T14:11:11;30.73;;;19.63;;
18387;SDS011;9320;50.256;19.026;2023-04-07T14:13:42;29.53;;;19.40;;
18387;SDS011;9320;50.256;19.026;2023-04-07T14:16:10;34.60;;;22.37;;
18387;SDS011;9320;50.256;19.026;2023-04-07T14:18:40;26.63;;;19.53;;
18387;SDS011;9320;50.256;19.026;2023-04-07T14:21:08;31.17;;;21.37;;
18387;SDS011;9320;50.256;19.026;2023-04-07T14:23:36;30.83;;;20.37;;
18387;SDS011;9320;50.256;19.026;2023-04-07T14:26:07;42.50;;;24.13;;
18387;SDS011;9320;50.256;19.026;2023-04-07T14:28:36;35.63;;;22.80;;
18387;SDS011;9320;50.256;19.026;2023-04-07T14:31:04;36.57;;;22.23;;
18387;SDS011;9320;50.256;19.026;2023-04-07T14:33:32;28.17;;;18.40;;
18387;SDS011;9320;50.256;19.026;2023-04-07T14:36:02;37.77;;;23.70;;
18387;SDS011;9320;50.256;19.026;2023-04-07T14:38:30;43.67;;;25.43;;
18387;SDS011;9320;50.256;19.026;2023-04-07T14:41:00;46.13;;;26.40;;
18387;SDS011;9320;50.256;19.026;2023-04-07T14:43:31;34.43;;;22.53;;
18387;SDS011;9320;50.256;19.026;2023-04-07T14:46:00;40.30;;;25.87;;